Hove, Belgium
Current Conditions -  °F | °C
As of 11:20 AM on Sunday 26 Oct 2014 (Local Time) from EBAW Reporting Station
Broken Clouds Broken Clouds  
Wind Chill: 57°   Ceiling: 4000
Heat Index: 57°   Visibility: 6mi
Dew Point: 50°   Wind: 7mph
Humidity: 77%   Direction: 210°SSW
Pressure: 30.27"   Gusts: NA
Location:  51.15°N, 4.47°E
Report Text: EBAW 260920Z 21006KT 9999 BKN040 14/10 Q1025 NOSIG
Loading
Personal Weather Stations






























Interactive Weather Map
Tropical Storm Tracking
New forecast layout! Learn more

10-Day Weather Forecast

Advertisements
Track Severe Weather on mobile